Time,TemperatureF,DewpointF,PressureIn,WindDirection,WindDirectionDegrees,WindSpeedMPH,WindSpeedGustMPH,Humidity,HourlyPrecipIn,Conditions,Clouds,dailyrainin,SoftwareType,DateUTC
2013-04-03 07:39:00,39.4,25.9,30.27,North,9,3.0,10.0,58,0.39,,---,0.00,VWS V13.01,2013-04-03 12:39:00,
2013-04-03 07:41:00,38.9,25.0,30.32,NE,49,3.0,10.0,57,0.39,,---,0.00,VWS V13.01,2013-04-03 12:41:00,
2013-04-03 07:46:00,39.3,24.9,30.32,NE,50,3.0,10.0,56,0.39,,---,0.00,VWS V13.01,2013-04-03 12:46:00,
2013-04-03 07:51:00,39.7,24.9,30.33,ENE,59,6.0,10.0,55,0.39,,---,0.00,VWS V13.01,2013-04-03 12:51:00,
2013-04-03 07:56:00,40.1,24.8,30.33,ENE,61,5.0,10.0,54,0.39,,---,0.00,VWS V13.01,2013-04-03 12:56:00,
2013-04-03 08:00:00,40.6,23.9,30.33,ENE,60,5.0,10.0,51,0.39,,---,0.00,VWS V13.01,2013-04-03 13:00:00,
2013-04-03 08:01:00,40.5,25.2,30.33,ENE,60,6.0,10.0,54,0.39,,---,0.00,VWS V13.01,2013-04-03 13:01:00,
2013-04-03 08:06:00,40.9,24.2,30.33,ENE,69,5.0,12.0,51,0.39,,---,0.00,VWS V13.01,2013-04-03 13:06:00,
2013-04-03 08:11:00,41.1,24.8,30.32,ENE,74,5.0,14.0,52,0.39,,---,0.00,VWS V13.01,2013-04-03 13:11:00,
2013-04-03 08:16:00,41.4,24.6,30.31,ENE,76,4.0,14.0,51,0.39,,---,0.00,VWS V13.01,2013-04-03 13:16:00,
2013-04-03 08:21:00,41.7,24.9,30.31,East,80,10.0,14.0,51,0.39,,---,0.00,VWS V13.01,2013-04-03 13:21:00,
2013-04-03 08:26:00,42.0,24.2,30.31,East,94,4.0,14.0,49,0.39,,---,0.00,VWS V13.01,2013-04-03 13:26:00,
2013-04-03 08:30:00,42.2,23.9,30.31,East,96,4.0,14.0,48,0.39,,---,0.00,VWS V13.01,2013-04-03 13:30:00,
2013-04-03 08:31:00,42.2,23.9,30.31,East,96,4.0,14.0,48,0.39,,---,0.00,VWS V13.01,2013-04-03 13:31:00,
2013-04-03 08:36:00,42.3,24.0,30.31,East,97,8.0,12.0,48,0.39,,---,0.00,VWS V13.01,2013-04-03 13:36:00,
2013-04-03 08:41:00,42.8,26.4,30.31,East,96,7.0,12.0,52,0.39,,---,0.00,VWS V13.01,2013-04-03 13:41:00,
2013-04-03 08:46:00,42.9,24.1,30.31,East,98,6.0,12.0,47,0.39,,---,0.00,VWS V13.01,2013-04-03 13:46:00,
2013-04-03 08:51:00,43.1,25.3,30.31,East,98,4.0,12.0,49,0.39,,---,0.00,VWS V13.01,2013-04-03 13:51:00,
2013-04-03 08:56:00,43.5,24.6,30.30,East,94,7.0,12.0,47,0.39,,---,0.00,VWS V13.01,2013-04-03 13:56:00,
2013-04-03 09:00:00,43.8,24.4,30.31,East,93,6.0,15.0,46,0.39,,---,0.00,VWS V13.01,2013-04-03 14:00:00,
2013-04-03 09:01:00,43.8,24.4,30.31,East,93,6.0,15.0,46,0.39,,---,0.00,VWS V13.01,2013-04-03 14:01:00,
2013-04-03 09:06:00,44.0,24.0,30.31,East,91,6.0,12.0,45,0.00,,---,0.00,VWS V13.01,2013-04-03 14:06:00,
2013-04-03 09:30:00,44.5,22.9,30.30,East,90,8.0,16.0,42,0.00,,---,0.00,VWS V13.01,2013-04-03 14:30:00,
2013-04-03 10:00:00,45.5,23.8,30.29,East,90,8.0,18.0,42,0.00,,---,0.00,VWS V13.01,2013-04-03 15:00:00,
2013-04-03 10:30:00,46.7,23.7,30.29,East,90,8.0,17.0,40,0.00,,---,0.00,VWS V13.01,2013-04-03 15:30:00,
2013-04-03 11:00:00,47.5,24.4,30.30,East,90,8.0,20.0,40,0.00,,---,0.00,VWS V13.01,2013-04-03 16:00:00,
2013-04-03 11:30:00,48.5,25.3,30.29,East,90,8.0,17.0,40,0.00,,---,0.00,VWS V13.01,2013-04-03 16:30:00,
2013-04-03 12:00:00,49.6,26.3,30.28,East,90,7.0,16.0,40,0.00,,---,0.00,VWS V13.01,2013-04-03 17:00:00,
2013-04-03 12:30:00,50.3,26.3,30.27,East,90,8.0,17.0,39,0.00,,---,0.00,VWS V13.01,2013-04-03 17:30:00,
2013-04-03 13:00:00,51.6,25.5,30.26,ENE,68,6.0,15.0,36,0.00,,---,0.00,VWS V13.01,2013-04-03 18:00:00,
2013-04-03 13:30:00,52.1,26.0,30.27,ENE,68,6.0,16.0,36,0.00,,---,0.00,VWS V13.01,2013-04-03 18:30:00,
2013-04-03 14:00:00,52.4,26.9,30.26,East,90,6.0,13.0,37,0.00,,---,0.00,VWS V13.01,2013-04-03 19:00:00,
2013-04-03 14:30:00,52.7,26.5,30.26,East,90,6.0,15.0,36,0.00,,---,0.00,VWS V13.01,2013-04-03 19:30:00,
2013-04-03 15:00:00,52.6,25.8,30.25,East,90,7.0,16.0,35,0.00,,---,0.00,VWS V13.01,2013-04-03 20:00:00,
2013-04-03 15:30:00,52.8,26.6,30.24,East,90,8.0,16.0,36,0.00,,---,0.00,VWS V13.01,2013-04-03 20:30:00,
2013-04-03 16:00:00,53.2,28.3,30.23,East,90,7.0,15.0,38,0.00,,---,0.00,VWS V13.01,2013-04-03 21:00:00,
2013-04-03 16:30:00,53.4,26.5,30.22,East,90,6.0,14.0,35,0.00,,---,0.00,VWS V13.01,2013-04-03 21:30:00,
2013-04-03 17:00:00,53.3,27.0,30.20,East,90,6.0,13.0,36,0.00,,---,0.00,VWS V13.01,2013-04-03 22:00:00,
2013-04-03 17:30:00,53.2,28.3,30.20,East,90,6.0,12.0,38,0.00,,---,0.00,VWS V13.01,2013-04-03 22:30:00,
2013-04-03 18:00:00,52.8,27.3,30.20,East,90,5.0,11.0,37,0.00,,---,0.00,VWS V13.01,2013-04-03 23:00:00,
2013-04-03 18:30:00,52.4,26.9,30.20,East,90,5.0,16.0,37,0.00,,---,0.00,VWS V13.01,2013-04-03 23:30:00,
2013-04-03 19:00:00,51.6,27.5,30.19,East,90,4.0,10.0,39,0.00,,---,0.00,VWS V13.01,2013-04-04 00:00:00,
2013-04-03 19:30:00,50.8,26.8,30.19,East,90,4.0,11.0,39,0.00,,---,0.00,VWS V13.01,2013-04-04 00:30:00,
2013-04-03 20:00:00,50.0,28.4,30.20,East,90,1.0,5.0,43,0.00,,---,0.00,VWS V13.01,2013-04-04 01:00:00,
2013-04-03 20:30:00,49.3,27.8,30.20,East,90,1.0,5.0,43,0.00,,---,0.00,VWS V13.01,2013-04-04 01:30:00,
2013-04-03 21:00:00,48.8,27.9,30.19,East,90,2.0,7.0,44,0.00,,---,0.00,VWS V13.01,2013-04-04 02:00:00,
2013-04-03 21:30:00,48.4,28.0,30.20,East,90,3.0,9.0,45,0.00,,---,0.00,VWS V13.01,2013-04-04 02:30:00,
2013-04-03 22:00:00,48.3,26.9,30.21,East,90,3.0,9.0,43,0.00,,---,0.00,VWS V13.01,2013-04-04 03:00:00,
2013-04-03 22:30:00,48.0,26.6,30.21,East,90,3.0,11.0,43,0.00,,---,0.00,VWS V13.01,2013-04-04 03:30:00,
2013-04-03 23:00:00,47.5,26.7,30.21,East,90,3.0,10.0,44,0.00,,---,0.00,VWS V13.01,2013-04-04 04:00:00,
2013-04-03 23:30:00,47.0,26.8,30.19,East,90,4.0,11.0,45,0.00,,---,0.00,VWS V13.01,2013-04-04 04:30:00,